Time;durP1;ratioP1;P1;durP2;ratioP2;P2;SDS_P1;SDS_P2;PMS_P1;PMS_P2;Temp;Humidity;BMP_temperature;BMP_pressure;BME280_temperature;BME280_humidity;BME280_pressure;Samples;Min_cycle;Max_cycle;Signal;HPM_P1;HPM_P2
2020/12/11 00:00:23;;;;;;;29.33;15.00;;;5.00;99.90;;;;;;6180627;28;20489;-62
2020/12/11 00:03:25;;;;;;;39.83;16.37;;;5.00;99.90;;;;;;6180201;28;20548;-61
2020/12/11 00:06:29;;;;;;;33.17;18.47;;;5.00;99.90;;;;;;6180423;28;20576;-59
2020/12/11 00:09:31;;;;;;;37.90;16.20;;;4.90;99.90;;;;;;6180599;28;20474;-59
2020/12/11 00:12:33;;;;;;;41.83;15.33;;;4.90;99.90;;;;;;6180162;28;20469;-59
2020/12/11 00:15:35;;;;;;;32.57;14.50;;;4.90;99.90;;;;;;6180430;28;20481;-63
2020/12/11 00:18:38;;;;;;;39.73;16.07;;;4.90;99.90;;;;;;6166296;28;20493;-61
2020/12/11 00:21:42;;;;;;;28.80;14.63;;;4.90;99.90;;;;;;6180039;28;20481;-61
2020/12/11 00:24:44;;;;;;;31.47;15.13;;;4.90;99.90;;;;;;6180160;28;20469;-61
2020/12/11 00:27:46;;;;;;;27.50;15.97;;;4.80;99.90;;;;;;6178272;28;20559;-60
2020/12/11 00:30:49;;;;;;;26.53;14.70;;;4.90;99.90;;;;;;6164725;28;20465;-60
2020/12/11 00:33:51;;;;;;;34.93;17.00;;;4.90;99.90;;;;;;6179841;28;20470;-63
2020/12/11 00:36:55;;;;;;;29.43;16.13;;;4.90;99.90;;;;;;6179377;28;20540;-61
2020/12/11 00:39:57;;;;;;;27.63;13.67;;;4.90;99.90;;;;;;6179666;28;20485;-60
2020/12/11 00:42:59;;;;;;;27.07;13.93;;;4.90;99.90;;;;;;6179111;28;20489;-62
2020/12/11 00:46:02;;;;;;;32.00;15.37;;;4.80;99.90;;;;;;6179531;28;20470;-63
2020/12/11 00:49:04;;;;;;;27.40;14.17;;;4.90;99.90;;;;;;6179225;28;20469;-61
2020/12/11 00:52:07;;;;;;;27.00;15.10;;;4.90;99.90;;;;;;6179307;28;20474;-60
2020/12/11 00:55:10;;;;;;;33.10;14.63;;;4.80;99.90;;;;;;6179380;28;20481;-60
2020/12/11 00:58:12;;;;;;;24.30;14.67;;;4.80;99.90;;;;;;6179228;28;20980;-61
2020/12/11 01:01:14;;;;;;;29.00;15.10;;;4.80;99.90;;;;;;6179022;28;20970;-63
2020/12/11 01:04:16;;;;;;;23.70;14.17;;;4.80;99.90;;;;;;6178957;28;20492;-61
2020/12/11 01:07:19;;;;;;;25.13;14.17;;;4.80;99.90;;;;;;6179261;28;20473;-59
2020/12/11 01:10:21;;;;;;;28.40;15.00;;;4.70;99.90;;;;;;6178796;28;21000;-61
2020/12/11 01:13:24;;;;;;;23.13;14.50;;;4.80;99.90;;;;;;6155228;28;20474;-59
2020/12/11 01:16:26;;;;;;;28.77;15.13;;;4.80;99.90;;;;;;6154954;29;20483;-59
2020/12/11 01:19:30;;;;;;;29.60;13.00;;;4.70;99.90;;;;;;6154555;29;20478;-60
2020/12/11 01:22:33;;;;;;;25.97;15.07;;;4.70;99.90;;;;;;6154647;29;20991;-60
2020/12/11 01:25:36;;;;;;;33.77;15.40;;;4.70;99.90;;;;;;6154527;29;20823;-61
2020/12/11 01:28:38;;;;;;;22.70;13.43;;;4.70;99.90;;;;;;6154433;29;20478;-61
2020/12/11 01:31:40;;;;;;;25.20;14.03;;;4.60;99.90;;;;;;6153449;29;20501;-61
2020/12/11 01:34:43;;;;;;;27.70;16.63;;;4.60;99.90;;;;;;6152726;29;20566;-61
2020/12/11 01:37:46;;;;;;;28.10;14.90;;;4.60;99.90;;;;;;6154275;28;20490;-61
2020/12/11 01:40:48;;;;;;;31.77;16.10;;;4.60;99.90;;;;;;6197085;28;20485;-61
2020/12/11 01:43:50;;;;;;;22.07;13.73;;;4.60;99.90;;;;;;6185611;28;20485;-61
2020/12/11 01:46:56;;;;;;;25.73;17.03;;;4.60;99.90;;;;;;6187743;28;20788;-61
2020/12/11 01:49:58;;;;;;;25.33;15.40;;;4.50;99.90;;;;;;6187522;28;20805;-61
2020/12/11 01:53:01;;;;;;;21.53;14.20;;;4.50;99.90;;;;;;6182350;28;20966;-61
2020/12/11 01:56:06;;;;;;;27.07;15.17;;;4.60;99.90;;;;;;6182757;28;20485;-60
2020/12/11 01:59:15;;;;;;;26.00;14.00;;;4.60;99.90;;;;;;6188318;28;20466;-59
2020/12/11 02:02:19;;;;;;;21.73;14.97;;;4.60;99.90;;;;;;6195780;28;20475;-60
2020/12/11 02:05:21;;;;;;;21.03;15.33;;;4.50;99.90;;;;;;6201145;28;20469;-60
2020/12/11 02:08:24;;;;;;;21.33;14.60;;;4.40;99.90;;;;;;6201333;28;20983;-60
2020/12/11 02:11:26;;;;;;;18.60;13.23;;;4.40;99.90;;;;;;6193376;28;20505;-61
2020/12/11 02:14:28;;;;;;;23.23;15.30;;;4.40;99.90;;;;;;6193610;28;20479;-61
2020/12/11 02:17:31;;;;;;;23.30;14.77;;;4.40;99.90;;;;;;6198416;28;21083;-61
2020/12/11 02:20:33;;;;;;;20.03;14.67;;;4.40;99.90;;;;;;6190840;28;20496;-61
2020/12/11 02:23:36;;;;;;;20.33;13.87;;;4.40;99.90;;;;;;6183378;28;20493;-61
2020/12/11 02:26:39;;;;;;;20.10;14.10;;;4.40;99.90;;;;;;6173148;28;20806;-61
2020/12/11 02:29:41;;;;;;;25.90;16.23;;;4.40;99.90;;;;;;6177149;28;20478;-61
2020/12/11 02:32:43;;;;;;;24.70;15.03;;;4.40;99.90;;;;;;6177182;28;20977;-61
2020/12/11 02:35:45;;;;;;;28.30;16.40;;;4.50;99.90;;;;;;6177077;28;20482;-61
2020/12/11 02:38:49;;;;;;;26.17;16.03;;;4.50;99.90;;;;;;6177024;28;20532;-61
2020/12/11 02:41:51;;;;;;;26.87;16.57;;;4.50;99.90;;;;;;6176773;28;20802;-61
2020/12/11 02:44:54;;;;;;;18.90;15.70;;;4.50;99.90;;;;;;6177150;28;20581;-61
2020/12/11 02:47:56;;;;;;;26.87;15.57;;;4.50;99.90;;;;;;6176834;28;20894;-61
2020/12/11 02:50:59;;;;;;;26.07;15.10;;;4.40;99.90;;;;;;6177120;28;20574;-61
2020/12/11 02:54:02;;;;;;;28.37;17.30;;;4.40;99.90;;;;;;6176795;28;20446;-61
2020/12/11 02:57:04;;;;;;;25.47;14.93;;;4.40;99.90;;;;;;6177233;28;20496;-61
2020/12/11 03:00:06;;;;;;;27.27;15.87;;;4.30;99.90;;;;;;6176702;28;20580;-62
2020/12/11 03:03:09;;;;;;;27.00;15.80;;;4.30;99.90;;;;;;6176966;28;20445;-62
2020/12/11 03:06:11;;;;;;;27.83;17.20;;;4.30;99.90;;;;;;6177087;28;20446;-61
2020/12/11 03:09:15;;;;;;;26.60;16.90;;;4.30;99.90;;;;;;6177840;28;20537;-61
2020/12/11 03:12:17;;;;;;;27.00;16.07;;;4.30;99.90;;;;;;6176322;28;20528;-61
2020/12/11 03:15:19;;;;;;;20.80;16.70;;;4.30;99.90;;;;;;6176993;28;20481;-61
2020/12/11 03:18:22;;;;;;;29.40;17.60;;;4.40;99.90;;;;;;6176840;28;20558;-61
2020/12/11 03:21:26;;;;;;;25.47;16.57;;;4.40;99.90;;;;;;6176726;28;20844;-61
2020/12/11 03:24:29;;;;;;;24.23;16.37;;;4.40;99.90;;;;;;6176573;28;20818;-62
2020/12/11 03:27:31;;;;;;;24.23;15.13;;;4.50;99.90;;;;;;6176881;28;20488;-62
2020/12/11 03:30:33;;;;;;;26.37;16.13;;;4.50;99.90;;;;;;6167672;28;20485;-61
2020/12/11 03:33:36;;;;;;;24.30;15.10;;;4.50;99.90;;;;;;6176703;28;20469;-62
2020/12/11 03:36:38;;;;;;;29.97;16.90;;;4.50;99.90;;;;;;6176709;28;20485;-61
2020/12/11 03:39:41;;;;;;;27.60;16.13;;;4.50;99.90;;;;;;6176350;28;20965;-61
2020/12/11 03:42:43;;;;;;;28.47;16.93;;;4.60;99.90;;;;;;6176497;28;20474;-61
2020/12/11 03:45:45;;;;;;;23.30;15.40;;;4.50;99.90;;;;;;6176328;28;20817;-61
2020/12/11 03:48:48;;;;;;;25.60;16.40;;;4.50;99.90;;;;;;6176384;28;20477;-61
2020/12/11 03:51:53;;;;;;;32.17;18.90;;;4.60;99.90;;;;;;6176348;28;20512;-61
2020/12/11 03:54:57;;;;;;;31.80;16.70;;;4.60;99.90;;;;;;6176440;28;20799;-62
2020/12/11 03:57:59;;;;;;;28.10;16.00;;;4.60;99.90;;;;;;6176352;28;20476;-62
2020/12/11 04:01:01;;;;;;;28.10;14.50;;;4.50;99.90;;;;;;6176044;28;20798;-61
2020/12/11 04:04:03;;;;;;;25.57;16.83;;;4.60;99.90;;;;;;6176514;28;20470;-62
2020/12/11 04:07:05;;;;;;;28.20;17.23;;;4.60;99.90;;;;;;6180549;28;20820;-61
2020/12/11 04:10:08;;;;;;;29.77;16.40;;;4.50;99.90;;;;;;6180676;28;20481;-61
2020/12/11 04:13:10;;;;;;;28.30;16.90;;;4.50;99.90;;;;;;6180394;28;20474;-62
2020/12/11 04:16:12;;;;;;;25.80;17.23;;;4.40;99.90;;;;;;6180363;28;20473;-62
2020/12/11 04:19:14;;;;;;;29.10;17.20;;;4.40;99.90;;;;;;6180457;28;20473;-61
2020/12/11 04:22:17;;;;;;;28.90;17.80;;;4.50;99.90;;;;;;6180401;28;20496;-62
2020/12/11 04:25:20;;;;;;;29.47;18.00;;;4.50;99.90;;;;;;6180563;28;20486;-62
2020/12/11 04:28:22;;;;;;;32.73;17.50;;;4.50;99.90;;;;;;6180001;28;20841;-61
2020/12/11 04:31:24;;;;;;;33.07;18.50;;;4.50;99.90;;;;;;6179935;28;20488;-62
2020/12/11 04:34:27;;;;;;;32.80;19.90;;;4.50;99.90;;;;;;6171246;28;20484;-62
2020/12/11 04:37:29;;;;;;;52.03;19.40;;;4.50;99.90;;;;;;6179972;28;20474;-62
2020/12/11 04:40:32;;;;;;;32.93;17.83;;;4.50;99.90;;;;;;6179938;28;20482;-62
2020/12/11 04:43:34;;;;;;;30.40;17.57;;;4.50;99.90;;;;;;6179508;28;20478;-61
2020/12/11 04:46:36;;;;;;;36.47;17.80;;;4.40;99.90;;;;;;6180091;28;20473;-61
2020/12/11 04:49:41;;;;;;;27.73;17.43;;;4.40;99.90;;;;;;6179535;28;20493;-61
2020/12/11 04:52:44;;;;;;;35.37;19.73;;;4.30;99.90;;;;;;6179555;28;20467;-61
2020/12/11 04:55:50;;;;;;;36.63;19.13;;;4.30;99.90;;;;;;6179625;28;20500;-61
2020/12/11 04:58:54;;;;;;;29.80;17.70;;;4.30;99.90;;;;;;6179555;28;20485;-61
2020/12/11 05:01:59;;;;;;;31.43;20.23;;;4.30;99.90;;;;;;6179748;28;20612;-62
2020/12/11 05:05:01;;;;;;;28.57;18.03;;;4.30;99.90;;;;;;6179444;28;20470;-62
2020/12/11 05:08:17;;;;;;;38.93;18.57;;;4.30;99.90;;;;;;6179107;28;20966;-62
2020/12/11 05:11:29;;;;;;;34.10;18.87;;;4.40;99.90;;;;;;6179612;28;20486;-62
2020/12/11 05:14:32;;;;;;;34.63;19.53;;;4.40;99.90;;;;;;6179643;28;20478;-61
2020/12/11 05:17:35;;;;;;;40.10;20.43;;;4.30;99.90;;;;;;6178853;28;21004;-62
2020/12/11 05:20:38;;;;;;;34.10;19.00;;;4.30;99.90;;;;;;6178764;28;20470;-61
2020/12/11 05:23:54;;;;;;;38.07;20.10;;;4.20;99.90;;;;;;6178897;28;20466;-61
2020/12/11 05:26:57;;;;;;;31.47;18.20;;;4.20;99.90;;;;;;6179290;28;20654;-62
2020/12/11 05:30:01;;;;;;;38.83;20.30;;;4.20;99.90;;;;;;6178914;28;20462;-62
2020/12/11 05:33:03;;;;;;;35.00;19.50;;;4.20;99.90;;;;;;6178544;28;20784;-61
2020/12/11 05:36:05;;;;;;;36.27;19.03;;;4.30;99.90;;;;;;6173963;28;20544;-61
2020/12/11 05:39:07;;;;;;;29.40;18.70;;;4.30;99.90;;;;;;6178344;28;20769;-61
2020/12/11 05:42:12;;;;;;;29.47;20.60;;;4.20;99.90;;;;;;6178290;28;20493;-61
2020/12/11 05:45:18;;;;;;;29.63;17.03;;;4.30;99.90;;;;;;6178162;28;20463;-62
2020/12/11 05:48:21;;;;;;;25.47;16.53;;;4.30;99.90;;;;;;6178232;28;20814;-62
2020/12/11 05:51:24;;;;;;;27.87;16.23;;;4.30;99.90;;;;;;6178414;28;20489;-62
2020/12/11 05:54:26;;;;;;;30.20;15.50;;;4.30;99.90;;;;;;6178489;28;20474;-61
2020/12/11 05:57:40;;;;;;;23.33;14.97;;;4.30;99.90;;;;;;6178075;28;20484;-61
2020/12/11 06:00:42;;;;;;;28.50;16.37;;;4.30;99.90;;;;;;6178105;28;20478;-61
2020/12/11 06:03:46;;;;;;;20.53;15.27;;;4.30;99.90;;;;;;6177832;28;20831;-61
2020/12/11 06:06:53;;;;;;;24.97;16.63;;;4.30;99.90;;;;;;6178224;28;20480;-62
2020/12/11 06:09:58;;;;;;;21.63;15.53;;;4.30;99.90;;;;;;6178090;28;20478;-61
2020/12/11 06:13:04;;;;;;;24.07;16.10;;;4.40;99.90;;;;;;6178066;28;20474;-61
2020/12/11 06:16:09;;;;;;;26.70;17.00;;;4.30;99.90;;;;;;6177631;28;20488;-61
2020/12/11 06:19:15;;;;;;;24.77;16.10;;;4.40;99.90;;;;;;6177808;28;20569;-61
2020/12/11 06:22:21;;;;;;;28.43;19.63;;;4.40;99.90;;;;;;6177435;28;20482;-61
2020/12/11 06:25:28;;;;;;;30.30;17.73;;;4.40;99.90;;;;;;6177934;28;20477;-62
2020/12/11 06:28:54;;;;;;;30.20;18.20;;;4.40;99.90;;;;;;6177216;28;20465;-62
2020/12/11 06:31:57;;;;;;;25.93;15.53;;;4.30;99.90;;;;;;6162885;28;20482;-61
2020/12/11 06:35:12;;;;;;;25.47;16.57;;;4.40;99.90;;;;;;6177139;28;20977;-61
2020/12/11 06:38:38;;;;;;;20.50;14.63;;;4.40;99.90;;;;;;6177027;28;20482;-61
2020/12/11 06:41:41;;;;;;;21.30;14.50;;;4.40;99.90;;;;;;6176786;28;20486;-62
2020/12/11 06:44:48;;;;;;;20.90;13.70;;;4.30;99.90;;;;;;6172586;28;20988;-62
2020/12/11 06:47:55;;;;;;;22.30;15.33;;;4.30;99.90;;;;;;6176961;28;20961;-62
2020/12/11 06:51:03;;;;;;;23.33;16.80;;;4.30;99.90;;;;;;6176964;28;20466;-62
2020/12/11 06:54:05;;;;;;;20.20;13.07;;;4.20;99.90;;;;;;6177133;28;20431;-62
2020/12/11 06:57:08;;;;;;;19.63;14.87;;;4.20;99.90;;;;;;6177024;28;20489;-62
2020/12/11 07:00:50;;;;;;;23.70;14.80;;;4.30;99.90;;;;;;6177012;28;20466;-62
2020/12/11 07:03:53;;;;;;;19.30;13.37;;;4.30;99.90;;;;;;6176940;28;20470;-62
2020/12/11 07:06:55;;;;;;;18.90;13.80;;;4.30;99.90;;;;;;6177043;28;20477;-62
2020/12/11 07:09:59;;;;;;;18.97;14.37;;;4.30;99.90;;;;;;6177609;28;20469;-61
2020/12/11 07:13:06;;;;;;;17.27;14.20;;;4.30;99.90;;;;;;6176726;28;20480;-64
2020/12/11 07:16:09;;;;;;;18.50;13.93;;;4.30;99.90;;;;;;6177015;28;20481;-61
2020/12/11 07:19:12;;;;;;;23.83;15.00;;;4.30;99.90;;;;;;6176505;28;20476;-61
2020/12/11 07:22:15;;;;;;;24.73;15.37;;;4.40;99.90;;;;;;6176657;28;20470;-61
2020/12/11 07:25:18;;;;;;;22.00;16.13;;;4.40;99.90;;;;;;6177008;28;20480;-61
2020/12/11 07:28:20;;;;;;;21.70;16.17;;;4.40;99.90;;;;;;6176634;28;20962;-61
2020/12/11 07:31:25;;;;;;;19.40;14.03;;;4.50;99.90;;;;;;6176495;28;21022;-62
2020/12/11 07:34:29;;;;;;;23.90;16.83;;;4.50;99.90;;;;;;6176412;28;21065;-61
2020/12/11 07:37:35;;;;;;;19.20;14.53;;;4.50;99.90;;;;;;6176281;28;20822;-62
2020/12/11 07:40:38;;;;;;;18.97;14.33;;;4.50;99.90;;;;;;6179007;28;20496;-61
2020/12/11 07:43:46;;;;;;;22.83;14.50;;;4.50;99.90;;;;;;6180460;28;20504;-61
2020/12/11 07:46:49;;;;;;;20.43;15.40;;;4.50;99.90;;;;;;6171367;28;20820;-60
2020/12/11 07:49:52;;;;;;;18.73;13.77;;;4.50;99.90;;;;;;6180752;28;20496;-61
2020/12/11 07:52:56;;;;;;;21.23;14.47;;;4.50;99.90;;;;;;6180754;28;20962;-61
2020/12/11 07:55:58;;;;;;;19.40;13.60;;;4.50;99.90;;;;;;6180637;28;21041;-62
2020/12/11 07:59:09;;;;;;;19.97;14.50;;;4.50;99.90;;;;;;6180524;28;20489;-61
2020/12/11 08:02:13;;;;;;;20.30;14.17;;;4.50;99.90;;;;;;6180265;28;20478;-62
2020/12/11 08:05:15;;;;;;;21.13;14.97;;;4.40;99.90;;;;;;6180235;28;20954;-61
2020/12/11 08:08:26;;;;;;;21.90;15.37;;;4.40;99.90;;;;;;6180301;28;20616;-61
2020/12/11 08:11:28;;;;;;;22.97;15.33;;;4.40;99.90;;;;;;6179796;28;20485;-62
2020/12/11 08:14:39;;;;;;;22.87;15.10;;;4.50;99.90;;;;;;6179851;28;20800;-60
2020/12/11 08:17:42;;;;;;;23.07;15.37;;;4.60;99.90;;;;;;6172386;28;20899;-64
2020/12/11 08:20:50;;;;;;;22.00;16.17;;;4.60;99.90;;;;;;6171372;28;20492;-60
2020/12/11 08:23:52;;;;;;;19.97;15.07;;;4.60;99.90;;;;;;6156153;28;20475;-60
2020/12/11 08:26:54;;;;;;;19.53;14.87;;;4.60;99.90;;;;;;6155632;28;20471;-60
2020/12/11 08:30:03;;;;;;;22.63;14.27;;;4.60;99.90;;;;;;6155304;29;21000;-62
2020/12/11 08:33:11;;;;;;;25.00;15.43;;;4.60;99.90;;;;;;6155740;29;20458;-60
2020/12/11 08:36:21;;;;;;;22.70;15.50;;;4.70;99.90;;;;;;6175635;28;20468;-61
2020/12/11 08:39:25;;;;;;;26.30;16.30;;;4.60;99.90;;;;;;6179601;28;20802;-61
2020/12/11 08:42:29;;;;;;;22.30;15.67;;;4.60;99.90;;;;;;6179131;28;20477;-62
2020/12/11 08:45:34;;;;;;;20.47;15.40;;;4.50;99.90;;;;;;6179215;28;20796;-62
2020/12/11 08:49:04;;;;;;;20.27;14.17;;;4.50;99.90;;;;;;6174507;28;20488;-62
2020/12/11 08:52:06;;;;;;;23.10;15.50;;;4.50;99.90;;;;;;6168099;28;20489;-61
2020/12/11 08:55:08;;;;;;;20.97;15.07;;;4.50;99.90;;;;;;6155472;29;20478;-64
2020/12/11 08:58:10;;;;;;;26.10;17.90;;;4.50;99.90;;;;;;6155098;29;20478;-64
2020/12/11 09:01:12;;;;;;;23.33;15.70;;;4.50;99.90;;;;;;6155317;29;20489;-63
2020/12/11 09:04:15;;;;;;;21.63;15.37;;;4.60;99.90;;;;;;6155097;29;20985;-62
2020/12/11 09:07:18;;;;;;;22.67;15.77;;;4.70;99.90;;;;;;6155062;29;20467;-65
2020/12/11 09:10:20;;;;;;;20.53;14.60;;;4.70;99.90;;;;;;6155215;29;20478;-62
2020/12/11 09:13:24;;;;;;;18.93;15.10;;;4.70;99.90;;;;;;6155151;29;20644;-64
2020/12/11 09:16:26;;;;;;;21.43;14.23;;;4.80;99.90;;;;;;6154816;29;20788;-63
2020/12/11 09:19:29;;;;;;;23.97;16.20;;;4.80;99.90;;;;;;6154861;28;20482;-63
2020/12/11 09:22:31;;;;;;;25.27;17.80;;;4.80;99.90;;;;;;6158042;28;20814;-63
2020/12/11 09:25:34;;;;;;;23.93;17.13;;;4.60;99.90;;;;;;6178799;28;20465;-67
2020/12/11 09:28:37;;;;;;;23.37;17.27;;;4.70;99.90;;;;;;6178362;28;20974;-64
2020/12/11 09:31:42;;;;;;;24.07;17.37;;;4.80;99.90;;;;;;6178277;28;20485;-64
2020/12/11 09:34:45;;;;;;;24.63;17.93;;;4.80;99.90;;;;;;6178515;28;20482;-64
2020/12/11 09:37:50;;;;;;;25.00;17.40;;;4.90;99.90;;;;;;6178010;28;20473;-62
2020/12/11 09:40:54;;;;;;;24.63;17.40;;;5.00;99.90;;;;;;6178066;28;20478;-63
2020/12/11 09:50:43;;;;;;;26.30;18.30;;;4.90;99.90;;;;;;6177049;28;20620;-66
2020/12/11 09:57:11;;;;;;;23.57;16.20;;;4.90;99.90;;;;;;6167751;28;20521;-63
2020/12/11 10:00:13;;;;;;;25.57;18.13;;;5.10;99.90;;;;;;6177614;28;20481;-59
2020/12/11 10:03:18;;;;;;;24.70;17.50;;;5.10;99.90;;;;;;6176957;28;20814;-61
2020/12/11 10:06:25;;;;;;;27.67;17.40;;;5.20;99.90;;;;;;6177726;28;20486;-62
2020/12/11 10:09:27;;;;;;;21.27;17.03;;;5.20;99.90;;;;;;6177721;28;20494;-63
2020/12/11 10:12:30;;;;;;;22.90;17.50;;;5.30;99.90;;;;;;6177679;28;20485;-64
2020/12/11 10:15:33;;;;;;;21.67;16.47;;;5.40;99.90;;;;;;6177819;28;20485;-62
2020/12/11 10:18:35;;;;;;;23.20;17.70;;;5.50;99.90;;;;;;6171940;28;20970;-62
2020/12/11 10:21:40;;;;;;;26.30;18.47;;;5.50;99.90;;;;;;6153090;29;20493;-64
2020/12/11 10:24:42;;;;;;;25.03;17.93;;;5.60;99.90;;;;;;6153520;29;20471;-61
2020/12/11 10:27:44;;;;;;;24.50;16.70;;;5.60;99.90;;;;;;6175864;28;20989;-63
2020/12/11 10:30:46;;;;;;;25.07;17.40;;;5.70;99.90;;;;;;6176864;28;20824;-63
2020/12/11 10:33:49;;;;;;;23.17;17.80;;;5.70;99.90;;;;;;6177044;28;20469;-61
2020/12/11 10:36:52;;;;;;;22.60;16.90;;;5.70;99.90;;;;;;6176962;28;20575;-62
2020/12/11 10:39:54;;;;;;;26.90;17.60;;;5.60;99.90;;;;;;6177084;28;20488;-64
2020/12/11 10:42:58;;;;;;;25.47;18.17;;;5.60;99.90;;;;;;6176593;28;20485;-61
2020/12/11 10:46:00;;;;;;;25.53;16.10;;;5.60;99.90;;;;;;6179125;28;20469;-65
2020/12/11 10:49:02;;;;;;;22.10;16.13;;;5.60;99.90;;;;;;6187810;28;20469;-64
2020/12/11 10:52:05;;;;;;;23.33;16.50;;;5.60;99.90;;;;;;6219402;23;20488;-63
2020/12/11 10:55:07;;;;;;;25.80;17.63;;;5.70;99.90;;;;;;6245904;28;20479;-65
2020/12/11 10:58:13;;;;;;;22.10;16.43;;;5.80;99.90;;;;;;6235393;28;20479;-62
2020/12/11 11:01:16;;;;;;;21.23;16.63;;;6.00;99.90;;;;;;6221068;28;20480;-65
2020/12/11 11:04:18;;;;;;;22.13;16.40;;;6.20;99.90;;;;;;6211182;28;20469;-65
2020/12/11 11:07:25;;;;;;;25.20;17.20;;;6.30;99.90;;;;;;6208476;28;20548;-63
2020/12/11 11:10:32;;;;;;;20.47;15.50;;;6.30;99.90;;;;;;6200501;28;20496;-64
2020/12/11 11:13:42;;;;;;;22.13;16.33;;;6.40;99.90;;;;;;6201614;28;20465;-57
2020/12/11 11:17:07;;;;;;;22.70;15.67;;;6.40;99.90;;;;;;6205580;28;20810;-59
2020/12/11 11:20:22;;;;;;;25.40;18.20;;;6.50;99.90;;;;;;6185076;28;20524;-61
2020/12/11 11:23:39;;;;;;;20.00;16.60;;;6.50;99.90;;;;;;6179027;28;20482;-59
2020/12/11 11:27:06;;;;;;;19.03;13.80;;;6.70;99.90;;;;;;6193077;28;20473;-61
2020/12/11 11:30:08;;;;;;;20.40;15.00;;;6.90;99.90;;;;;;6203258;28;20461;-61
2020/12/11 11:33:11;;;;;;;20.27;13.47;;;7.10;99.90;;;;;;6203930;28;20453;-61
2020/12/11 11:36:13;;;;;;;19.43;14.77;;;7.10;99.90;;;;;;6205136;28;20538;-61
2020/12/11 11:39:16;;;;;;;19.10;15.00;;;7.00;99.90;;;;;;6204963;28;20468;-61
2020/12/11 11:42:20;;;;;;;22.77;16.30;;;6.80;99.90;;;;;;6204728;28;20917;-61
2020/12/11 11:45:25;;;;;;;22.80;16.00;;;6.80;99.90;;;;;;6205000;28;20992;-61
2020/12/11 11:48:28;;;;;;;20.20;15.73;;;6.70;99.90;;;;;;6205129;28;20812;-61
2020/12/11 11:51:37;;;;;;;17.43;15.53;;;6.70;99.90;;;;;;6204696;28;20480;-62
2020/12/11 11:54:43;;;;;;;21.33;15.23;;;6.60;99.90;;;;;;6206944;28;20473;-61
2020/12/11 11:57:45;;;;;;;25.53;16.60;;;6.50;99.90;;;;;;6221930;28;20565;-61
2020/12/11 12:00:48;;;;;;;23.53;17.07;;;6.50;99.90;;;;;;6220586;28;20483;-61
2020/12/11 12:03:52;;;;;;;22.83;15.83;;;6.50;99.90;;;;;;6219535;28;20472;-61
2020/12/11 12:06:55;;;;;;;20.80;16.40;;;6.60;99.90;;;;;;6211562;28;20477;-60
2020/12/11 12:09:58;;;;;;;20.50;15.20;;;6.70;99.90;;;;;;6205700;28;20559;-60
2020/12/11 12:13:00;;;;;;;21.33;15.90;;;6.80;99.90;;;;;;6211860;28;20468;-61
2020/12/11 12:16:03;;;;;;;20.83;15.20;;;6.70;99.90;;;;;;6219706;28;20506;-60
2020/12/11 12:19:09;;;;;;;22.10;15.67;;;6.70;99.90;;;;;;6207098;28;20504;-59
2020/12/11 12:29:04;;;;;;;22.23;16.57;;;6.60;99.90;;;;;;6223793;28;20479;-60
2020/12/11 12:32:07;;;;;;;21.50;15.23;;;6.50;99.90;;;;;;6228213;28;20812;-61
2020/12/11 12:35:22;;;;;;;25.63;17.57;;;6.30;99.90;;;;;;6228176;28;21138;-62
2020/12/11 12:38:34;;;;;;;22.67;17.63;;;6.40;99.90;;;;;;6228189;28;20499;-59
2020/12/11 12:44:58;;;;;;;21.50;16.37;;;6.60;99.90;;;;;;6227995;28;20449;-63
2020/12/11 12:48:00;;;;;;;20.13;16.30;;;6.70;99.90;;;;;;6227855;28;20440;-63
2020/12/11 12:51:02;;;;;;;22.20;16.00;;;6.70;99.90;;;;;;6227179;28;20487;-60
2020/12/11 12:54:05;;;;;;;20.97;16.47;;;6.80;99.90;;;;;;6228002;28;20448;-62
2020/12/11 12:57:13;;;;;;;20.70;16.57;;;6.90;99.90;;;;;;6227623;28;20897;-63
2020/12/11 13:00:23;;;;;;;23.50;17.10;;;7.00;99.90;;;;;;6176913;28;20450;-63
2020/12/11 13:04:05;;;;;;;17.17;14.53;;;7.20;99.90;;;;;;6177092;28;20840;-65
2020/12/11 13:07:07;;;;;;;18.43;14.07;;;7.30;99.90;;;;;;6179906;28;20801;-64
2020/12/11 13:10:10;;;;;;;18.90;15.73;;;7.30;99.90;;;;;;6225342;28;20472;-63
2020/12/11 13:13:13;;;;;;;19.87;17.30;;;7.20;99.90;;;;;;6227056;28;21049;-63
2020/12/11 13:16:16;;;;;;;21.50;16.47;;;7.00;99.90;;;;;;6225985;28;20539;-63
2020/12/11 13:19:21;;;;;;;21.30;16.73;;;6.90;99.90;;;;;;6202246;28;21004;-61
2020/12/11 13:22:34;;;;;;;21.00;16.93;;;6.90;99.90;;;;;;6179061;28;20486;-60
2020/12/11 13:25:51;;;;;;;19.00;16.27;;;7.00;99.90;;;;;;6178590;28;20973;-63
2020/12/11 13:28:54;;;;;;;19.23;17.23;;;7.10;99.90;;;;;;6178516;28;20474;-62
2020/12/11 13:31:59;;;;;;;21.33;17.20;;;7.10;99.90;;;;;;6178434;28;20557;-62
2020/12/11 13:35:02;;;;;;;21.27;17.40;;;7.10;99.90;;;;;;6178298;28;20496;-62
2020/12/11 13:38:04;;;;;;;19.20;16.97;;;7.00;99.90;;;;;;6177021;28;20474;-62
2020/12/11 13:41:09;;;;;;;22.67;18.03;;;6.90;99.90;;;;;;6178125;28;20493;-62
2020/12/11 13:44:12;;;;;;;25.53;18.10;;;6.80;99.90;;;;;;6178180;28;20470;-62
2020/12/11 13:47:15;;;;;;;21.47;17.07;;;6.70;99.90;;;;;;6177946;28;20470;-62
2020/12/11 13:50:17;;;;;;;20.00;15.73;;;6.50;99.90;;;;;;6177655;28;20488;-62
2020/12/11 13:53:21;;;;;;;18.47;13.80;;;6.40;99.90;;;;;;6177902;28;20480;-62
2020/12/11 13:56:24;;;;;;;19.77;15.03;;;6.20;99.90;;;;;;6177962;28;20474;-62
2020/12/11 13:59:30;;;;;;;16.23;14.53;;;6.00;99.90;;;;;;6177736;28;20532;-61
2020/12/11 14:02:33;;;;;;;18.03;14.37;;;5.80;99.90;;;;;;6177572;28;20966;-62
2020/12/11 14:05:35;;;;;;;18.87;13.80;;;5.80;99.90;;;;;;6177726;28;20790;-62
2020/12/11 14:08:39;;;;;;;17.00;13.80;;;5.70;99.90;;;;;;6172839;28;20973;-62
2020/12/11 14:11:42;;;;;;;18.80;14.87;;;5.80;99.90;;;;;;6177317;28;20482;-61
2020/12/11 14:14:47;;;;;;;20.07;15.40;;;5.70;99.90;;;;;;6177450;28;20477;-63
2020/12/11 14:18:04;;;;;;;21.33;14.77;;;5.60;99.90;;;;;;6179230;28;20490;-62
2020/12/11 14:21:23;;;;;;;17.03;15.07;;;5.70;99.90;;;;;;6200968;28;20469;-63
2020/12/11 14:24:25;;;;;;;22.70;17.10;;;5.60;99.90;;;;;;6201625;28;20469;-65
2020/12/11 14:27:27;;;;;;;18.80;15.67;;;5.60;99.90;;;;;;6201263;28;20789;-63
2020/12/11 14:30:31;;;;;;;20.73;17.50;;;5.60;99.90;;;;;;6201101;28;20476;-62
2020/12/11 14:33:34;;;;;;;20.63;16.17;;;5.40;99.90;;;;;;6201097;28;20552;-61
2020/12/11 14:36:36;;;;;;;23.33;15.50;;;5.40;99.90;;;;;;6201276;28;20491;-61
2020/12/11 14:39:38;;;;;;;22.17;15.50;;;5.40;99.90;;;;;;6200867;28;20480;-63
2020/12/11 14:42:41;;;;;;;19.83;15.47;;;5.40;99.90;;;;;;6200792;28;20520;-62
2020/12/11 14:45:44;;;;;;;22.73;17.70;;;5.40;99.90;;;;;;6201158;28;20476;-62
2020/12/11 14:48:48;;;;;;;20.43;17.60;;;5.40;99.90;;;;;;6200352;28;20483;-62
2020/12/11 14:51:52;;;;;;;21.13;16.40;;;5.40;99.90;;;;;;6215097;28;20626;-63
2020/12/11 14:54:55;;;;;;;20.40;17.63;;;5.40;99.90;;;;;;6204193;28;20476;-60
2020/12/11 14:57:58;;;;;;;21.83;16.80;;;5.30;99.90;;;;;;6201014;28;20484;-60
2020/12/11 15:01:01;;;;;;;19.80;16.00;;;5.30;99.90;;;;;;6200554;28;20469;-61
2020/12/11 15:04:03;;;;;;;22.90;17.20;;;5.30;99.90;;;;;;6198696;28;20479;-61
2020/12/11 15:07:06;;;;;;;24.23;16.67;;;5.30;99.90;;;;;;6198576;28;20480;-61
2020/12/11 15:10:09;;;;;;;21.67;17.23;;;5.30;99.90;;;;;;6189396;28;20485;-61
2020/12/11 15:13:11;;;;;;;23.37;17.97;;;5.20;99.90;;;;;;6198387;28;20875;-61
2020/12/11 15:16:14;;;;;;;23.80;17.07;;;5.20;99.90;;;;;;6198834;28;20487;-59
2020/12/11 15:19:16;;;;;;;23.43;16.07;;;5.20;99.90;;;;;;6186498;28;20478;-60
2020/12/11 15:22:18;;;;;;;20.37;15.93;;;5.20;99.90;;;;;;6176709;28;20469;-62
2020/12/11 15:25:29;;;;;;;21.47;15.93;;;5.20;99.90;;;;;;6201635;28;20465;-60
2020/12/11 15:28:31;;;;;;;23.53;17.50;;;5.20;99.90;;;;;;6200702;28;20474;-59
2020/12/11 15:31:34;;;;;;;24.07;16.97;;;5.20;99.90;;;;;;6200180;28;20488;-62
2020/12/11 15:34:37;;;;;;;20.40;16.73;;;5.20;99.90;;;;;;6200460;28;20473;-60
2020/12/11 15:37:39;;;;;;;22.67;17.60;;;5.30;99.90;;;;;;6200447;28;20481;-61
2020/12/11 15:40:42;;;;;;;21.27;17.00;;;5.30;99.90;;;;;;6200405;28;20485;-60
2020/12/11 15:43:45;;;;;;;20.70;16.13;;;5.30;99.90;;;;;;6200130;28;20473;-60
2020/12/11 15:46:48;;;;;;;23.40;18.07;;;5.30;99.90;;;;;;6200435;28;20479;-59
2020/12/11 15:49:50;;;;;;;23.07;17.33;;;5.30;99.90;;;;;;6200321;28;20472;-62
2020/12/11 15:52:53;;;;;;;21.53;17.67;;;5.40;99.90;;;;;;6200118;28;20473;-61
2020/12/11 15:55:56;;;;;;;23.73;17.53;;;5.40;99.90;;;;;;6200104;28;20473;-61
2020/12/11 15:58:58;;;;;;;24.80;19.90;;;5.40;99.90;;;;;;6200138;28;20564;-61
2020/12/11 16:02:01;;;;;;;25.73;18.80;;;5.50;99.90;;;;;;6203243;28;20480;-61
2020/12/11 16:05:03;;;;;;;19.67;16.10;;;5.50;99.90;;;;;;6204624;28;20487;-60